createdAt,value
2018-11-25T00:01:07.027Z,100950.28
2018-11-25T00:06:09.813Z,100944.77
2018-11-25T00:11:12.446Z,100948.32
2018-11-25T00:16:15.108Z,100952.08
2018-11-25T00:21:17.698Z,100945.73
2018-11-25T00:26:20.286Z,100946.52
2018-11-25T00:31:22.876Z,100937.06
2018-11-25T00:36:25.475Z,100927.52
2018-11-25T00:41:28.114Z,100924.89
2018-11-25T00:46:30.713Z,100923.83
2018-11-25T00:51:33.351Z,100929.26
2018-11-25T00:56:35.942Z,100930.82
2018-11-25T01:01:38.598Z,100919.34
2018-11-25T01:06:41.162Z,100919.22
2018-11-25T01:11:43.774Z,100918.70
2018-11-25T01:16:46.372Z,100925.98
2018-11-25T01:21:48.990Z,100930.77
2018-11-25T01:26:51.558Z,100921.40
2018-11-25T01:31:54.155Z,100917.53
2018-11-25T01:36:56.746Z,100923.53
2018-11-25T01:41:59.346Z,100924.38
2018-11-25T01:47:01.935Z,100914.91
2018-11-25T01:52:04.708Z,100912.73
2018-11-25T01:57:07.625Z,100925.14
2018-11-25T02:02:10.342Z,100921.67
2018-11-25T02:07:12.898Z,100922.64
2018-11-25T02:12:15.473Z,100911.48
2018-11-25T02:17:18.031Z,100901.62
2018-11-25T02:22:20.605Z,100908.46
2018-11-25T02:27:23.200Z,100913.66
2018-11-25T02:32:25.853Z,100902.46
2018-11-25T02:37:28.423Z,100899.88
2018-11-25T02:42:30.990Z,100898.15
2018-11-25T02:47:33.624Z,100898.59
2018-11-25T02:52:36.217Z,100893.04
2018-11-25T02:57:38.914Z,100889.97
2018-11-25T03:02:41.546Z,100888.16
2018-11-25T03:07:44.162Z,100881.66
2018-11-25T03:12:46.715Z,100873.08
2018-11-25T03:17:49.290Z,100864.05
2018-11-25T03:22:51.891Z,100867.66
2018-11-25T03:27:54.474Z,100877.75
2018-11-25T03:32:57.070Z,100872.27
2018-11-25T03:37:59.692Z,100875.34
2018-11-25T03:43:02.340Z,100875.02
2018-11-25T03:48:04.975Z,100874.50
2018-11-25T03:53:07.626Z,100874.33
2018-11-25T03:58:10.231Z,100881.17
2018-11-25T04:03:12.836Z,100880.99
2018-11-25T04:08:15.431Z,100868.42
2018-11-25T04:13:18.044Z,100876.05
2018-11-25T04:18:20.610Z,100867.80
2018-11-25T04:23:23.226Z,100868.19
2018-11-25T04:28:25.827Z,100861.75
2018-11-25T04:33:28.456Z,100854.36
2018-11-25T04:38:31.106Z,100854.36
2018-11-25T04:43:33.742Z,100848.72
2018-11-25T04:48:36.349Z,100847.43
2018-11-25T04:53:38.946Z,100845.65
2018-11-25T04:58:41.550Z,100848.67
2018-11-25T05:03:44.246Z,100846.98
2018-11-25T05:08:46.833Z,100845.25
2018-11-25T05:13:49.499Z,100838.36
2018-11-25T05:18:52.139Z,100859.33
2018-11-25T05:23:54.725Z,100858.94
2018-11-25T05:28:57.304Z,100865.78
2018-11-25T05:33:59.914Z,100860.54
2018-11-25T05:39:03.174Z,100856.67
2018-11-25T05:44:05.809Z,100857.52
2018-11-25T05:49:08.423Z,100855.34
2018-11-25T05:54:11.235Z,100859.20
2018-11-25T05:59:13.878Z,100856.63
2018-11-25T06:04:16.494Z,100852.75
2018-11-25T06:09:19.086Z,100856.23
2018-11-25T06:14:21.691Z,100862.23
2018-11-25T06:19:24.302Z,100872.94
2018-11-25T06:24:26.867Z,100868.28
2018-11-25T06:29:29.463Z,100878.20
2018-11-25T06:34:32.035Z,100872.59
2018-11-25T06:39:34.696Z,100866.14
2018-11-25T06:44:37.410Z,100868.36
2018-11-25T06:49:39.961Z,100862.72
2018-11-25T06:54:42.571Z,100858.49
2018-11-25T06:59:45.318Z,100858.49
2018-11-25T07:04:47.923Z,100858.86
2018-11-25T07:09:50.504Z,100859.70
2018-11-25T07:14:54.231Z,100869.56
2018-11-25T07:19:56.859Z,100881.17
2018-11-25T07:24:59.559Z,100878.99
2018-11-25T07:30:07.643Z,100887.17
2018-11-25T07:35:06.860Z,100895.80
2018-11-25T07:40:15.900Z,100895.70
2018-11-25T07:45:20.858Z,100902.47
2018-11-25T07:50:23.468Z,100910.92
2018-11-25T07:55:26.034Z,100904.42
2018-11-25T08:00:28.632Z,100904.74
2018-11-25T08:05:31.243Z,100907.67
2018-11-25T08:10:33.927Z,100900.69
2018-11-25T08:15:36.632Z,100904.91
2018-11-25T08:20:39.210Z,100899.66
2018-11-25T08:25:41.832Z,100895.70
2018-11-25T08:30:44.394Z,100898.09
2018-11-25T08:35:47.521Z,100906.59
2018-11-25T08:40:50.337Z,100897.52
2018-11-25T08:45:52.989Z,100894.75
2018-11-25T08:50:55.630Z,100889.34
2018-11-25T08:55:58.290Z,100896.06
2018-11-25T09:01:00.954Z,100899.80
2018-11-25T09:06:03.642Z,100901.34
2018-11-25T09:11:06.207Z,100893.86
2018-11-25T09:16:09.851Z,100889.35
2018-11-25T09:21:12.371Z,100891.69
2018-11-25T09:26:14.986Z,100885.50
2018-11-25T09:31:17.518Z,100899.95
2018-11-25T09:36:20.130Z,100895.58
2018-11-25T09:41:22.711Z,100897.20
2018-11-25T09:46:25.347Z,100890.56
2018-11-25T09:51:27.989Z,100898.42
2018-11-25T09:56:30.566Z,100895.59
2018-11-25T10:01:33.198Z,100897.58
2018-11-25T10:06:35.783Z,100907.80
2018-11-25T10:11:38.401Z,100897.47
2018-11-25T10:16:41.030Z,100900.36
2018-11-25T10:21:43.596Z,100898.02
2018-11-25T10:26:46.199Z,100887.94
2018-11-25T10:31:48.766Z,100889.81
2018-11-25T10:36:52.411Z,100886.48
2018-11-25T10:41:54.996Z,100888.67
2018-11-25T10:46:57.663Z,100882.39
2018-11-25T10:52:00.306Z,100886.39
2018-11-25T10:57:02.920Z,100883.12
2018-11-25T11:03:08.900Z,100886.88
2018-11-25T11:08:11.524Z,100887.13
2018-11-25T11:13:14.077Z,100884.63
2018-11-25T11:18:16.656Z,100878.94
2018-11-25T11:23:19.296Z,100875.06
2018-11-25T11:28:22.036Z,100869.29
2018-11-25T11:33:25.235Z,100880.87
2018-11-25T11:38:27.905Z,100879.24
2018-11-25T11:43:30.495Z,100879.00
2018-11-25T11:48:33.170Z,100875.06
2018-11-25T11:53:35.742Z,100874.85
2018-11-25T11:58:38.312Z,100865.97
2018-11-25T12:03:41.018Z,100862.00
2018-11-25T12:08:43.692Z,100869.77
2018-11-25T12:13:46.275Z,100875.03
2018-11-25T12:18:48.963Z,100882.01
2018-11-25T12:23:51.635Z,100886.04
2018-11-25T12:28:54.218Z,100873.56
2018-11-25T12:33:56.891Z,100877.83
2018-11-25T12:38:59.710Z,100868.38
2018-11-25T12:44:02.782Z,100865.41
2018-11-25T12:49:05.405Z,100871.03
2018-11-25T12:54:08.297Z,100864.51
2018-11-25T12:59:10.866Z,100867.09
2018-11-25T13:04:13.499Z,100860.75
2018-11-25T13:09:16.126Z,100867.21
2018-11-25T13:14:18.660Z,100858.70
2018-11-25T13:19:21.421Z,100856.17
2018-11-25T13:24:24.091Z,100858.77
2018-11-25T13:29:27.824Z,100853.98
2018-11-25T13:34:30.712Z,100843.64
2018-11-25T13:39:33.839Z,100848.75
2018-11-25T13:44:41.447Z,100857.26
2018-11-25T13:49:44.153Z,100854.61
2018-11-25T13:54:47.077Z,100848.98
2018-11-25T13:59:50.056Z,100842.97
2018-11-25T14:04:52.950Z,100837.47
2018-11-25T14:09:55.677Z,100849.20
2018-11-25T14:14:58.512Z,100848.42
2018-11-25T14:20:01.922Z,100838.68
2018-11-25T14:25:08.930Z,100846.44
2018-11-25T14:30:16.268Z,100843.02
2018-11-25T14:35:18.978Z,100855.94
2018-11-25T14:40:21.604Z,100850.31
2018-11-25T14:45:24.203Z,100862.47
2018-11-25T14:50:26.945Z,100859.12
2018-11-25T14:55:29.562Z,100861.77
2018-11-25T15:00:32.242Z,100859.12
2018-11-25T15:05:39.266Z,100869.86
2018-11-25T15:10:41.854Z,100868.57
2018-11-25T15:15:44.446Z,100875.48
2018-11-25T15:20:47.042Z,100878.97
2018-11-25T15:25:53.019Z,100884.53
2018-11-25T15:30:55.614Z,100888.33
2018-11-25T15:35:58.278Z,100889.25
2018-11-25T15:41:01.015Z,100884.53
2018-11-25T15:46:03.703Z,100876.00
2018-11-25T15:51:06.299Z,100890.67
2018-11-25T15:56:09.603Z,100877.73
2018-11-25T16:01:12.447Z,100891.21
2018-11-25T16:06:24.733Z,100887.63
2018-11-25T16:11:27.352Z,100891.12
2018-11-25T16:16:30.291Z,100901.02
2018-11-25T16:21:32.987Z,100901.10
2018-11-25T16:26:37.306Z,100900.26
2018-11-25T16:31:39.952Z,100893.02
2018-11-25T16:36:42.568Z,100896.98
2018-11-25T16:41:45.248Z,100903.95
2018-11-25T16:46:47.827Z,100900.98
2018-11-25T16:51:50.455Z,100892.77
2018-11-25T16:56:53.162Z,100892.38
2018-11-25T17:01:55.802Z,100891.63
2018-11-25T17:06:58.525Z,100894.27
2018-11-25T17:12:01.148Z,100902.92
2018-11-25T17:17:03.742Z,100906.34
2018-11-25T17:22:06.347Z,100917.63
2018-11-25T17:27:09.016Z,100920.12
2018-11-25T17:32:11.895Z,100908.48
2018-11-25T17:37:14.464Z,100903.02
2018-11-25T17:42:17.092Z,100909.23
2018-11-25T17:47:19.666Z,100908.05
2018-11-25T17:52:22.351Z,100901.68
2018-11-25T17:57:24.849Z,100902.64
2018-11-25T18:02:27.399Z,100901.80
2018-11-25T18:07:30.003Z,100906.96
2018-11-25T18:12:33.511Z,100909.64
2018-11-25T18:17:36.058Z,100918.23
2018-11-25T18:22:44.140Z,100920.48
2018-11-25T18:27:48.060Z,100922.16
2018-11-25T18:32:50.630Z,100917.89
2018-11-25T18:37:53.218Z,100923.12
2018-11-25T18:42:55.825Z,100926.55
2018-11-25T18:47:58.836Z,100935.59
2018-11-25T18:53:01.426Z,100925.34
2018-11-25T18:58:04.037Z,100920.23
2018-11-25T19:03:06.687Z,100923.32
2018-11-25T19:08:09.229Z,100929.03
2018-11-25T19:13:11.842Z,100923.52
2018-11-25T19:18:14.840Z,100931.36
2018-11-25T19:23:17.844Z,100931.36
2018-11-25T19:28:20.950Z,100932.66
2018-11-25T19:33:23.956Z,100940.41
2018-11-25T19:38:27.059Z,100945.87
2018-11-25T19:43:30.086Z,100939.70
2018-11-25T19:48:33.066Z,100936.38
2018-11-25T19:58:59.152Z,100946.07
2018-11-25T20:04:02.148Z,100953.38
2018-11-25T20:09:09.054Z,100950.03
2018-11-25T20:14:12.251Z,100953.70
2018-11-25T20:19:15.255Z,100945.89
2018-11-25T20:24:17.952Z,100952.84
2018-11-25T20:29:20.591Z,100954.63
2018-11-25T20:34:23.281Z,100937.75
2018-11-25T20:39:31.584Z,100950.75
2018-11-25T20:44:34.238Z,100952.14
2018-11-25T20:49:36.823Z,100959.13
2018-11-25T20:54:39.386Z,100957.05
2018-11-25T20:59:42.029Z,100961.78
2018-11-25T21:04:44.768Z,100954.86
2018-11-25T21:09:47.364Z,100962.48
2018-11-25T21:14:49.930Z,100963.72
2018-11-25T21:19:52.524Z,100961.97
2018-11-25T21:24:55.198Z,100964.22
2018-11-25T21:29:57.772Z,100960.29
2018-11-25T21:35:00.347Z,100955.70
2018-11-25T21:40:06.163Z,100959.73
2018-11-25T21:45:10.916Z,100968.83
2018-11-25T21:50:20.652Z,100966.88
2018-11-25T21:55:24.078Z,100969.64
2018-11-25T22:00:26.647Z,100961.90
2018-11-25T22:05:29.233Z,100964.56
2018-11-25T22:10:31.805Z,100964.80
2018-11-25T22:15:34.431Z,100969.97
2018-11-25T22:20:37.063Z,100976.55
2018-11-25T22:25:39.626Z,100995.56
2018-11-25T22:30:42.310Z,100985.77
2018-11-25T22:35:44.964Z,100981.10
2018-11-25T22:40:47.510Z,100977.81
2018-11-25T22:45:50.114Z,100975.41
2018-11-25T22:50:52.735Z,100971.31
2018-11-25T22:55:55.435Z,100971.37
2018-11-25T23:00:58.071Z,100972.79
2018-11-25T23:06:18.316Z,100974.70
2018-11-25T23:11:20.896Z,100981.50
2018-11-25T23:16:23.458Z,100980.47
2018-11-25T23:21:26.058Z,100991.41
2018-11-25T23:26:28.656Z,100978.73
2018-11-25T23:31:31.219Z,100983.30
2018-11-25T23:36:34.410Z,100986.04
2018-11-25T23:41:37.719Z,100982.39
2018-11-25T23:46:40.316Z,100974.55
2018-11-25T23:51:43.805Z,100965.90
2018-11-25T23:56:45.482Z,100966.51
